createdAt,value
2018-07-20T00:00:30.387Z,1011.37
2018-07-20T00:01:30.387Z,1011.35
2018-07-20T00:02:30.379Z,1011.29
2018-07-20T00:03:30.380Z,1011.33
2018-07-20T00:04:30.385Z,1011.30
2018-07-20T00:05:30.436Z,1011.27
2018-07-20T00:06:30.379Z,1011.26
2018-07-20T00:07:30.380Z,1011.25
2018-07-20T00:08:30.380Z,1011.25
2018-07-20T00:09:30.377Z,1011.23
2018-07-20T00:10:30.381Z,1011.23
2018-07-20T00:11:30.381Z,1011.20
2018-07-20T00:12:30.380Z,1011.22
2018-07-20T00:13:30.381Z,1011.21
2018-07-20T00:14:30.375Z,1011.18
2018-07-20T00:15:30.375Z,1011.11
2018-07-20T00:16:30.375Z,1011.17
2018-07-20T00:17:30.374Z,1011.16
2018-07-20T00:18:30.378Z,1011.15
2018-07-20T00:19:30.377Z,1011.15
2018-07-20T00:20:30.373Z,1011.14
2018-07-20T00:21:30.371Z,1011.10
2018-07-20T00:22:30.376Z,1011.15
2018-07-20T00:23:30.378Z,1011.07
2018-07-20T00:24:30.375Z,1011.10
2018-07-20T00:25:30.372Z,1011.07
2018-07-20T00:26:30.369Z,1011.08
2018-07-20T00:27:30.369Z,1011.09
2018-07-20T00:28:30.367Z,1011.05
2018-07-20T00:29:30.367Z,1011.08
2018-07-20T00:30:30.379Z,1011.10
2018-07-20T00:31:30.370Z,1011.14
2018-07-20T00:32:30.374Z,1011.10
2018-07-20T00:33:30.369Z,1011.09
2018-07-20T00:34:30.363Z,1011.08
2018-07-20T00:35:30.364Z,1011.09
2018-07-20T00:36:30.367Z,1011.03
2018-07-20T00:37:30.369Z,1011.01
2018-07-20T00:38:30.361Z,1011.00
2018-07-20T00:39:30.360Z,1010.96
2018-07-20T00:40:30.360Z,1011.00
2018-07-20T00:41:30.357Z,1010.96
2018-07-20T00:42:30.363Z,1010.96
2018-07-20T00:43:30.360Z,1010.93
2018-07-20T00:44:30.360Z,1010.94
2018-07-20T00:45:30.359Z,1010.96
2018-07-20T00:46:30.353Z,1010.94
2018-07-20T00:47:30.353Z,1010.94
2018-07-20T00:48:30.352Z,1010.88
2018-07-20T00:49:30.350Z,1010.91
2018-07-20T00:50:30.356Z,1010.90
2018-07-20T00:51:30.356Z,1010.91
2018-07-20T00:52:30.348Z,1010.94
2018-07-20T00:53:30.346Z,1010.93
2018-07-20T00:54:30.352Z,1010.88
2018-07-20T00:55:30.352Z,1010.91
2018-07-20T00:56:30.351Z,1010.92
2018-07-20T00:57:30.347Z,1010.97
2018-07-20T00:58:30.343Z,1010.95
2018-07-20T00:59:30.343Z,1010.91
2018-07-20T01:00:30.346Z,1010.93
2018-07-20T01:01:30.340Z,1010.90
2018-07-20T01:02:30.343Z,1010.90
2018-07-20T01:03:30.343Z,1010.89
2018-07-20T01:04:30.344Z,1010.83
2018-07-20T01:05:30.392Z,1010.86
2018-07-20T01:06:30.335Z,1010.87
2018-07-20T01:07:30.334Z,1010.90
2018-07-20T01:08:30.337Z,1010.89
2018-07-20T01:09:30.335Z,1010.89
2018-07-20T01:10:30.331Z,1010.89
2018-07-20T01:11:30.330Z,1010.90
2018-07-20T01:12:30.330Z,1010.86
2018-07-20T01:13:30.326Z,1010.87
2018-07-20T01:14:30.334Z,1010.86
2018-07-20T01:15:30.330Z,1010.82
2018-07-20T01:16:30.330Z,1010.84
2018-07-20T01:17:30.329Z,1010.83
2018-07-20T01:18:30.321Z,1010.83
2018-07-20T01:19:30.321Z,1010.84
2018-07-20T01:20:30.320Z,1010.84
2018-07-20T01:21:30.320Z,1010.85
2018-07-20T01:22:30.323Z,1010.85
2018-07-20T01:23:30.324Z,1010.84
2018-07-20T01:24:30.319Z,1010.81
2018-07-20T01:25:30.312Z,1010.86
2018-07-20T01:26:30.315Z,1010.85
2018-07-20T01:27:30.314Z,1010.84
2018-07-20T01:28:30.313Z,1010.86
2018-07-20T01:29:30.312Z,1010.89
2018-07-20T01:30:30.307Z,1010.85
2018-07-20T01:31:30.304Z,1010.83
2018-07-20T01:32:30.307Z,1010.81
2018-07-20T01:33:30.302Z,1010.79
2018-07-20T01:34:30.309Z,1010.76
2018-07-20T01:35:30.305Z,1010.80
2018-07-20T01:36:30.302Z,1010.77
2018-07-20T01:37:30.301Z,1010.72
2018-07-20T01:38:30.295Z,1010.77
2018-07-20T01:39:30.296Z,1010.73
2018-07-20T01:40:30.296Z,1010.74
2018-07-20T01:41:30.294Z,1010.70
2018-07-20T01:42:30.290Z,1010.74
2018-07-20T01:43:30.291Z,1010.75
2018-07-20T01:44:30.287Z,1010.77
2018-07-20T01:45:30.285Z,1010.73
2018-07-20T01:46:30.289Z,1010.77
2018-07-20T01:47:30.288Z,1010.74
2018-07-20T01:48:30.286Z,1010.71
2018-07-20T01:49:30.285Z,1010.73
2018-07-20T01:50:30.277Z,1010.74
2018-07-20T01:51:30.276Z,1010.75
2018-07-20T01:52:30.275Z,1010.77
2018-07-20T01:53:30.275Z,1010.76
2018-07-20T01:54:30.275Z,1010.77
2018-07-20T01:55:30.276Z,1010.75
2018-07-20T01:56:30.270Z,1010.73
2018-07-20T01:57:30.267Z,1010.79
2018-07-20T01:58:30.272Z,1010.74
2018-07-20T01:59:30.269Z,1010.76
2018-07-20T02:00:30.269Z,1010.77
2018-07-20T02:01:30.266Z,1010.78
2018-07-20T02:02:30.260Z,1010.70
2018-07-20T02:03:30.258Z,1010.66
2018-07-20T02:04:30.256Z,1010.66
2018-07-20T02:05:30.255Z,1010.65
2018-07-20T02:06:30.258Z,1010.62
2018-07-20T02:07:30.255Z,1010.63
2018-07-20T02:08:30.255Z,1010.62
2018-07-20T02:09:30.253Z,1010.59
2018-07-20T02:10:30.248Z,1010.58
2018-07-20T02:11:30.245Z,1010.57
2018-07-20T02:12:30.251Z,1010.59
2018-07-20T02:13:30.248Z,1010.56
2018-07-20T02:14:30.240Z,1010.54
2018-07-20T02:15:30.238Z,1010.55
2018-07-20T02:16:30.236Z,1010.49
2018-07-20T02:17:30.234Z,1010.54
2018-07-20T02:18:30.237Z,1010.52
2018-07-20T02:19:30.235Z,1010.49
2018-07-20T02:20:30.236Z,1010.51
2018-07-20T02:21:30.238Z,1010.58
2018-07-20T02:22:30.226Z,1010.53
2018-07-20T02:23:30.224Z,1010.59
2018-07-20T02:24:30.222Z,1010.59
2018-07-20T02:25:30.222Z,1010.56
2018-07-20T02:26:30.225Z,1010.59
2018-07-20T02:27:30.221Z,1010.58
2018-07-20T02:28:30.215Z,1010.52
2018-07-20T02:29:30.248Z,1010.55
2018-07-20T02:30:30.216Z,1010.51
2018-07-20T02:31:30.216Z,1010.52
2018-07-20T02:32:30.213Z,1010.56
2018-07-20T02:33:30.210Z,1010.52
2018-07-20T02:34:30.204Z,1010.54
2018-07-20T02:35:30.205Z,1010.49
2018-07-20T02:36:30.206Z,1010.48
2018-07-20T02:37:30.199Z,1010.49
2018-07-20T02:38:30.200Z,1010.49
2018-07-20T02:39:30.199Z,1010.48
2018-07-20T02:40:30.198Z,1010.45
2018-07-20T02:41:30.197Z,1010.46
2018-07-20T02:42:30.191Z,1010.49
2018-07-20T02:43:30.189Z,1010.44
2018-07-20T02:44:30.191Z,1010.45
2018-07-20T02:45:30.189Z,1010.46
2018-07-20T02:46:30.181Z,1010.48
2018-07-20T02:47:30.181Z,1010.46
2018-07-20T02:48:30.178Z,1010.43
2018-07-20T02:49:30.175Z,1010.42
2018-07-20T02:50:30.178Z,1010.43
2018-07-20T02:51:30.178Z,1010.39
2018-07-20T02:52:30.175Z,1010.35
2018-07-20T02:53:30.174Z,1010.36
2018-07-20T02:54:30.167Z,1010.41
2018-07-20T02:55:30.164Z,1010.38
2018-07-20T02:56:30.162Z,1010.40
2018-07-20T02:57:30.159Z,1010.38
2018-07-20T02:58:30.167Z,1010.36
2018-07-20T02:59:30.165Z,1010.38
2018-07-20T03:00:30.154Z,1010.37
2018-07-20T03:01:30.152Z,1010.33
2018-07-20T03:02:30.155Z,1010.38
2018-07-20T03:03:30.153Z,1010.37
2018-07-20T03:04:30.156Z,1010.39
2018-07-20T03:05:30.148Z,1010.35
2018-07-20T03:06:30.141Z,1010.34
2018-07-20T03:07:30.140Z,1010.36
2018-07-20T03:08:30.138Z,1010.33
2018-07-20T03:09:30.135Z,1010.28
2018-07-20T03:10:30.139Z,1010.29
2018-07-20T03:11:30.137Z,1010.31
2018-07-20T03:12:30.134Z,1010.34
2018-07-20T03:13:30.132Z,1010.34
2018-07-20T03:14:30.125Z,1010.34
2018-07-20T03:15:30.123Z,1010.33
2018-07-20T03:16:30.132Z,1010.37
2018-07-20T03:17:30.124Z,1010.34
2018-07-20T03:18:30.121Z,1010.37
2018-07-20T03:19:30.115Z,1010.37
2018-07-20T03:20:30.112Z,1010.34
2018-07-20T03:21:30.112Z,1010.39
2018-07-20T03:22:30.115Z,1010.40
2018-07-20T03:23:30.114Z,1010.34
2018-07-20T03:24:30.110Z,1010.36
2018-07-20T03:25:30.111Z,1010.32
2018-07-20T03:26:30.101Z,1010.31
2018-07-20T03:27:30.099Z,1010.29
2018-07-20T03:28:30.096Z,1010.31
2018-07-20T03:29:30.095Z,1010.23
2018-07-20T03:30:30.098Z,1010.24
2018-07-20T03:31:30.093Z,1010.28
2018-07-20T03:32:30.091Z,1010.23
2018-07-20T03:33:30.086Z,1010.28
2018-07-20T03:34:30.093Z,1010.29
2018-07-20T03:35:30.085Z,1010.29
2018-07-20T03:36:30.085Z,1010.29
2018-07-20T03:37:30.083Z,1010.29
2018-07-20T03:38:30.077Z,1010.28
2018-07-20T03:39:30.070Z,1010.35
2018-07-20T03:40:30.069Z,1010.30
2018-07-20T03:41:30.069Z,1010.27
2018-07-20T03:42:30.071Z,1010.29
2018-07-20T03:43:30.067Z,1010.29
2018-07-20T03:44:30.064Z,1010.33
2018-07-20T03:45:30.063Z,1010.33
2018-07-20T03:46:30.058Z,1010.32
2018-07-20T03:47:30.053Z,1010.36
2018-07-20T03:48:30.094Z,1010.33
2018-07-20T03:49:30.054Z,1010.32
2018-07-20T03:50:30.045Z,1010.29
2018-07-20T03:51:30.045Z,1010.32
2018-07-20T03:52:30.044Z,1010.27
2018-07-20T03:53:30.041Z,1010.29
2018-07-20T03:54:30.042Z,1010.31
2018-07-20T03:55:30.042Z,1010.26
2018-07-20T03:56:30.039Z,1010.29
2018-07-20T03:57:30.037Z,1010.30
2018-07-20T03:58:30.030Z,1010.29
2018-07-20T03:59:30.026Z,1010.30
2018-07-20T04:00:30.022Z,1010.22
2018-07-20T04:01:30.023Z,1010.31
2018-07-20T04:02:30.064Z,1010.30
2018-07-20T04:03:30.021Z,1010.29
2018-07-20T04:04:30.013Z,1010.26
2018-07-20T04:05:30.010Z,1010.20
2018-07-20T04:06:30.013Z,1010.30
2018-07-20T04:07:30.011Z,1010.26
2018-07-20T04:08:30.009Z,1010.21
2018-07-20T04:09:30.006Z,1010.18
2018-07-20T04:10:29.999Z,1010.15
2018-07-20T04:11:29.997Z,1010.16
2018-07-20T04:12:29.995Z,1010.14
2018-07-20T04:13:29.993Z,1010.18
2018-07-20T04:14:29.995Z,1010.20
2018-07-20T04:15:29.992Z,1010.23
2018-07-20T04:16:29.991Z,1010.21
2018-07-20T04:17:29.989Z,1010.14
2018-07-20T04:18:29.984Z,1010.16
2018-07-20T04:19:29.979Z,1010.14
2018-07-20T04:20:29.983Z,1010.17
2018-07-20T04:21:29.980Z,1010.18
2018-07-20T04:22:29.973Z,1010.16
2018-07-20T04:23:29.973Z,1010.16
2018-07-20T04:24:29.969Z,1010.16
2018-07-20T04:25:29.966Z,1010.16
2018-07-20T04:26:29.968Z,1010.17
2018-07-20T04:27:29.967Z,1010.18
2018-07-20T04:28:29.966Z,1010.18
2018-07-20T04:29:29.968Z,1010.16
2018-07-20T04:30:29.957Z,1010.20
2018-07-20T04:31:29.955Z,1010.20
2018-07-20T04:32:29.954Z,1010.19
2018-07-20T04:33:29.951Z,1010.16
2018-07-20T04:34:29.953Z,1010.16
2018-07-20T04:35:29.953Z,1010.15
2018-07-20T04:36:30.116Z,1010.14
2018-07-20T04:37:29.943Z,1010.17
2018-07-20T04:38:29.947Z,1010.17
2018-07-20T04:39:29.946Z,1010.15
2018-07-20T04:40:29.942Z,1010.19
2018-07-20T04:41:29.940Z,1010.16
2018-07-20T04:42:29.934Z,1010.19
2018-07-20T04:43:29.933Z,1010.11
2018-07-20T04:44:29.932Z,1010.20
2018-07-20T04:45:29.931Z,1010.19
2018-07-20T04:46:29.931Z,1010.17
2018-07-20T04:47:29.934Z,1010.15
2018-07-20T04:48:29.930Z,1010.14
2018-07-20T04:49:29.930Z,1010.19
2018-07-20T04:50:29.928Z,1010.19
2018-07-20T04:51:29.921Z,1010.20
2018-07-20T04:52:29.925Z,1010.23
2018-07-20T04:53:29.921Z,1010.17
2018-07-20T04:54:29.917Z,1010.25
2018-07-20T04:55:29.914Z,1010.26
2018-07-20T04:56:29.918Z,1010.27
2018-07-20T04:57:29.912Z,1010.18
2018-07-20T04:58:29.915Z,1010.23
2018-07-20T04:59:29.913Z,1010.25
2018-07-20T05:00:29.912Z,1010.20
2018-07-20T05:01:29.910Z,1010.24
2018-07-20T05:02:29.906Z,1010.23
2018-07-20T05:03:29.905Z,1010.27
2018-07-20T05:04:29.904Z,1010.26
2018-07-20T05:05:29.903Z,1010.33
2018-07-20T05:06:29.907Z,1010.29
2018-07-20T05:07:29.905Z,1010.31
2018-07-20T05:08:29.900Z,1010.31
2018-07-20T05:09:29.898Z,1010.35
2018-07-20T05:10:29.903Z,1010.42
2018-07-20T05:11:30.001Z,1010.39
2018-07-20T05:12:29.901Z,1010.46
2018-07-20T05:13:29.902Z,1010.42
2018-07-20T05:14:29.895Z,1010.44
2018-07-20T05:15:29.896Z,1010.46
2018-07-20T05:16:29.895Z,1010.51
2018-07-20T05:17:29.895Z,1010.53
2018-07-20T05:18:29.901Z,1010.50
2018-07-20T05:19:29.899Z,1010.52
2018-07-20T05:20:29.898Z,1010.50
2018-07-20T05:21:29.898Z,1010.51
2018-07-20T05:22:29.894Z,1010.53
2018-07-20T05:23:29.896Z,1010.54
2018-07-20T05:24:29.902Z,1010.63
2018-07-20T05:25:29.899Z,1010.68
2018-07-20T05:26:29.895Z,1010.68
2018-07-20T05:27:29.897Z,1010.71
2018-07-20T05:28:29.898Z,1010.75
2018-07-20T05:29:29.898Z,1010.74
2018-07-20T05:30:29.904Z,1010.73
2018-07-20T05:31:29.905Z,1010.68
2018-07-20T05:32:29.914Z,1010.69
2018-07-20T05:33:29.909Z,1010.67
2018-07-20T05:34:29.905Z,1010.69
2018-07-20T05:35:29.908Z,1010.70
2018-07-20T05:36:29.910Z,1010.71
2018-07-20T05:37:29.911Z,1010.75
2018-07-20T05:38:29.924Z,1010.76
2018-07-20T05:39:29.920Z,1010.79
2018-07-20T05:40:29.918Z,1010.79
2018-07-20T05:41:29.921Z,1010.82
2018-07-20T05:42:29.928Z,1010.84
2018-07-20T05:43:29.931Z,1010.85
2018-07-20T05:44:29.936Z,1010.90
2018-07-20T05:45:29.944Z,1010.91
2018-07-20T05:46:29.938Z,1010.94
2018-07-20T05:47:29.940Z,1010.98
2018-07-20T05:48:29.945Z,1011.01
2018-07-20T05:49:29.949Z,1011.07
2018-07-20T05:50:29.958Z,1011.09
2018-07-20T05:51:29.963Z,1011.04
2018-07-20T05:52:29.966Z,1011.12
2018-07-20T05:53:30.028Z,1011.10
2018-07-20T05:54:29.972Z,1011.09
2018-07-20T05:55:29.978Z,1011.10
2018-07-20T05:56:29.985Z,1011.15
2018-07-20T05:57:29.990Z,1011.18
2018-07-20T05:58:29.991Z,1011.17
2018-07-20T05:59:29.996Z,1011.22
2018-07-20T06:00:30.002Z,1011.21
2018-07-20T06:01:30.010Z,1011.19
2018-07-20T06:02:30.019Z,1011.28
2018-07-20T06:03:30.026Z,1011.25
2018-07-20T06:04:30.034Z,1011.29
2018-07-20T06:05:30.075Z,1011.23
2018-07-20T06:06:30.039Z,1011.23
2018-07-20T06:07:30.047Z,1011.25
2018-07-20T06:08:30.053Z,1011.29
2018-07-20T06:09:30.058Z,1011.27
2018-07-20T06:10:30.073Z,1011.33
2018-07-20T06:11:30.076Z,1011.36
2018-07-20T06:12:30.080Z,1011.41
2018-07-20T06:13:30.085Z,1011.33
2018-07-20T06:14:30.097Z,1011.28
2018-07-20T06:15:30.105Z,1011.37
2018-07-20T06:16:30.114Z,1011.38
2018-07-20T06:17:30.120Z,1011.43
2018-07-20T06:18:30.122Z,1011.42
2018-07-20T06:19:30.131Z,1011.44
2018-07-20T06:20:30.138Z,1011.44
2018-07-20T06:21:30.154Z,1011.40
2018-07-20T06:22:30.158Z,1011.42
2018-07-20T06:23:30.174Z,1011.43
2018-07-20T06:24:30.175Z,1011.47
2018-07-20T06:25:30.182Z,1011.48
2018-07-20T06:26:30.185Z,1011.50
2018-07-20T06:27:30.194Z,1011.45
2018-07-20T06:28:30.208Z,1011.48
2018-07-20T06:29:30.219Z,1011.46
2018-07-20T06:30:30.219Z,1011.48
2018-07-20T06:31:30.229Z,1011.45
2018-07-20T06:32:30.238Z,1011.45
2018-07-20T06:33:30.245Z,1011.49
2018-07-20T06:34:30.260Z,1011.50
2018-07-20T06:35:30.268Z,1011.48
2018-07-20T06:36:30.277Z,1011.49
2018-07-20T06:37:30.286Z,1011.53
2018-07-20T06:38:30.293Z,1011.55
2018-07-20T06:39:30.301Z,1011.55
2018-07-20T06:40:30.313Z,1011.65
2018-07-20T06:41:30.321Z,1011.59
2018-07-20T06:42:30.336Z,1011.64
2018-07-20T06:43:30.347Z,1011.66
2018-07-20T06:44:30.351Z,1011.72
2018-07-20T06:45:30.361Z,1011.77
2018-07-20T06:46:30.376Z,1011.70
2018-07-20T06:47:30.386Z,1011.71
2018-07-20T06:48:30.399Z,1011.71
2018-07-20T06:49:30.408Z,1011.69
2018-07-20T06:50:30.414Z,1011.79
2018-07-20T06:51:30.438Z,1011.80
2018-07-20T06:52:30.441Z,1011.86
2018-07-20T06:53:30.446Z,1011.86
2018-07-20T06:54:30.462Z,1011.87
2018-07-20T06:55:30.473Z,1011.89
2018-07-20T06:56:30.486Z,1011.83
2018-07-20T06:57:30.502Z,1011.82
2018-07-20T06:58:30.504Z,1011.88
2018-07-20T06:59:30.515Z,1011.86
2018-07-20T07:00:30.533Z,1011.87
2018-07-20T07:01:30.545Z,1011.88
2018-07-20T07:02:30.552Z,1011.88
2018-07-20T07:03:30.567Z,1011.83
2018-07-20T07:04:30.576Z,1011.23
2018-07-20T07:05:30.588Z,1011.22
2018-07-20T07:06:30.604Z,1011.22
2018-07-20T07:07:30.617Z,1011.19
2018-07-20T07:08:30.635Z,1011.21
2018-07-20T07:09:30.682Z,1011.23
2018-07-20T07:10:30.650Z,1011.21
2018-07-20T07:11:30.663Z,1011.15
2018-07-20T07:12:30.676Z,1011.09
2018-07-20T07:13:30.687Z,1011.12
2018-07-20T07:14:30.730Z,1011.12
2018-07-20T07:15:30.719Z,1011.18
2018-07-20T07:16:30.726Z,1011.20
2018-07-20T07:17:30.738Z,1011.19
2018-07-20T07:18:30.756Z,1011.17
2018-07-20T07:19:30.768Z,1011.12
2018-07-20T07:20:30.782Z,1011.13
2018-07-20T07:21:30.795Z,1011.15
2018-07-20T07:22:30.801Z,1011.14
2018-07-20T07:23:30.817Z,1011.15
2018-07-20T07:24:30.829Z,1011.16
2018-07-20T07:25:30.840Z,1011.19
2018-07-20T07:26:30.857Z,1011.18
2018-07-20T07:27:30.870Z,1011.13
2018-07-20T07:28:30.886Z,1011.17
2018-07-20T07:29:30.898Z,1011.13
2018-07-20T07:30:30.906Z,1011.11
2018-07-20T07:31:30.922Z,1011.14
2018-07-20T07:32:30.939Z,1011.16
2018-07-20T07:33:30.952Z,1011.12
2018-07-20T07:34:30.960Z,1011.19
2018-07-20T07:35:30.975Z,1011.17
2018-07-20T07:36:30.991Z,1011.11
2018-07-20T07:37:31.001Z,1011.14
2018-07-20T07:38:31.019Z,1011.08
2018-07-20T07:39:31.033Z,1011.04
2018-07-20T07:40:31.049Z,1011.04
2018-07-20T07:41:31.061Z,1011.01
2018-07-20T07:42:31.072Z,1010.99
2018-07-20T07:43:31.088Z,1010.99
2018-07-20T07:44:31.101Z,1011.02
2018-07-20T07:45:31.115Z,1011.00
2018-07-20T07:46:31.134Z,1011.00
2018-07-20T07:47:31.149Z,1010.98
2018-07-20T07:48:31.158Z,1010.96
2018-07-20T07:49:31.175Z,1010.95
2018-07-20T07:50:31.192Z,1010.96
2018-07-20T07:51:31.205Z,1010.96
2018-07-20T07:52:31.220Z,1010.97
2018-07-20T07:53:31.233Z,1010.98
2018-07-20T07:54:31.245Z,1010.96
2018-07-20T07:55:31.258Z,1010.98
2018-07-20T07:56:31.275Z,1010.94
2018-07-20T07:57:31.288Z,1010.97
2018-07-20T07:58:31.308Z,1010.98
2018-07-20T07:59:31.323Z,1010.98
2018-07-20T08:00:31.338Z,1010.92
2018-07-20T08:01:31.353Z,1010.95
2018-07-20T08:02:31.365Z,1010.90
2018-07-20T08:03:31.384Z,1010.94
2018-07-20T08:04:31.416Z,1010.95
2018-07-20T08:05:31.413Z,1010.93
2018-07-20T08:06:31.425Z,1010.95
2018-07-20T08:07:31.441Z,1010.94
2018-07-20T08:08:31.457Z,1010.93
2018-07-20T08:09:31.471Z,1010.89
2018-07-20T08:10:31.492Z,1010.94
2018-07-20T08:11:31.512Z,1010.86
2018-07-20T08:12:31.525Z,1010.86
2018-07-20T08:13:31.541Z,1010.85
2018-07-20T08:14:31.552Z,1010.87
2018-07-20T08:15:31.573Z,1010.91
2018-07-20T08:16:31.585Z,1010.89
2018-07-20T08:17:31.600Z,1010.90
2018-07-20T08:18:31.621Z,1010.87
2018-07-20T08:19:31.639Z,1010.88
2018-07-20T08:20:31.650Z,1010.91
2018-07-20T08:21:31.669Z,1010.91
2018-07-20T08:22:31.688Z,1010.87
2018-07-20T08:23:31.705Z,1010.91
2018-07-20T08:24:31.722Z,1010.88
2018-07-20T08:25:31.736Z,1010.88
2018-07-20T08:26:31.749Z,1010.88
2018-07-20T08:27:31.769Z,1010.86
2018-07-20T08:28:31.784Z,1010.89
2018-07-20T08:29:31.916Z,1010.86
2018-07-20T08:30:31.828Z,1010.86
2018-07-20T08:31:31.841Z,1010.85
2018-07-20T08:32:31.858Z,1010.84
2018-07-20T08:33:31.876Z,1010.82
2018-07-20T08:34:31.889Z,1010.85
2018-07-20T08:35:31.907Z,1010.82
2018-07-20T08:36:31.929Z,1010.79
2018-07-20T08:37:31.946Z,1010.84
2018-07-20T08:38:31.961Z,1010.84
2018-07-20T08:39:31.979Z,1010.83
2018-07-20T08:40:31.999Z,1010.86
2018-07-20T08:41:32.012Z,1010.81
2018-07-20T08:42:32.038Z,1010.84
2018-07-20T08:43:32.053Z,1010.83
2018-07-20T08:44:32.073Z,1010.79
2018-07-20T08:45:32.090Z,1010.81
2018-07-20T08:46:32.115Z,1010.80
2018-07-20T08:47:32.123Z,1010.79
2018-07-20T08:48:32.140Z,1010.78
2018-07-20T08:49:32.163Z,1010.75
2018-07-20T08:50:32.186Z,1010.76
2018-07-20T08:51:32.204Z,1010.73
2018-07-20T08:52:32.223Z,1010.75
2018-07-20T08:53:32.236Z,1010.69
2018-07-20T08:54:32.261Z,1010.75
2018-07-20T08:55:32.279Z,1010.76
2018-07-20T08:56:32.299Z,1010.69
2018-07-20T08:57:32.317Z,1010.66
2018-07-20T08:58:32.333Z,1010.75
2018-07-20T08:59:32.352Z,1010.72
2018-07-20T09:00:32.372Z,1010.72
2018-07-20T09:01:32.390Z,1010.76
2018-07-20T09:02:32.415Z,1010.75
2018-07-20T09:03:32.485Z,1010.80
2018-07-20T09:04:32.454Z,1010.78
2018-07-20T09:05:32.473Z,1010.80
2018-07-20T09:06:32.488Z,1010.75
2018-07-20T09:07:32.508Z,1010.75
2018-07-20T09:08:32.532Z,1010.74
2018-07-20T09:09:32.551Z,1010.75
2018-07-20T09:10:32.568Z,1010.76
2018-07-20T09:11:32.586Z,1010.70
2018-07-20T09:12:32.607Z,1010.70
2018-07-20T09:13:32.698Z,1010.70
2018-07-20T09:14:32.652Z,1010.65
2018-07-20T09:15:32.671Z,1010.66
2018-07-20T09:16:32.692Z,1010.62
2018-07-20T09:17:32.712Z,1010.62
2018-07-20T09:18:32.731Z,1010.62
2018-07-20T09:19:32.749Z,1010.60
2018-07-20T09:20:32.796Z,1010.58
2018-07-20T09:21:32.788Z,1010.58
2018-07-20T09:22:32.811Z,1010.56
2018-07-20T09:23:32.831Z,1010.59
2018-07-20T09:24:32.849Z,1010.55
2018-07-20T09:25:32.867Z,1010.56
2018-07-20T09:26:32.892Z,1010.55
2018-07-20T09:27:32.912Z,1010.58
2018-07-20T09:28:32.933Z,1010.57
2018-07-20T09:29:32.951Z,1010.54
2018-07-20T09:30:32.968Z,1010.56
2018-07-20T09:31:32.988Z,1010.58
2018-07-20T09:32:33.008Z,1010.59
2018-07-20T09:33:33.027Z,1010.59
2018-07-20T09:34:33.051Z,1010.59
2018-07-20T09:35:33.074Z,1010.56
2018-07-20T09:36:33.093Z,1010.61
2018-07-20T09:37:33.113Z,1010.61
2018-07-20T09:38:33.127Z,1010.57
2018-07-20T09:39:33.149Z,1010.58
2018-07-20T09:40:33.174Z,1010.54
2018-07-20T09:41:33.192Z,1010.55
2018-07-20T09:42:33.207Z,1010.50
2018-07-20T09:43:33.227Z,1010.44
2018-07-20T09:44:33.248Z,1010.44
2018-07-20T09:45:33.266Z,1010.43
2018-07-20T09:46:33.290Z,1010.43
2018-07-20T09:47:33.309Z,1010.42
2018-07-20T09:48:33.329Z,1010.41
2018-07-20T09:49:33.347Z,1010.36
2018-07-20T09:50:33.363Z,1010.37
2018-07-20T09:51:33.381Z,1010.36
2018-07-20T09:52:33.399Z,1010.39
2018-07-20T09:53:33.420Z,1010.38
2018-07-20T09:54:33.439Z,1010.42
2018-07-20T09:55:33.460Z,1010.34
2018-07-20T09:56:33.471Z,1010.38
2018-07-20T09:57:33.487Z,1010.34
2018-07-20T09:58:33.542Z,1010.35
2018-07-20T09:59:33.587Z,1010.37
2018-07-20T10:00:33.546Z,1010.34
2018-07-20T10:01:33.562Z,1010.32
2018-07-20T10:02:33.575Z,1010.26
2018-07-20T10:03:33.592Z,1010.31
2018-07-20T10:04:33.609Z,1010.29
2018-07-20T10:05:33.627Z,1010.26
2018-07-20T10:06:33.649Z,1010.21
2018-07-20T10:07:33.675Z,1010.20
2018-07-20T10:08:33.683Z,1010.21
2018-07-20T10:09:33.700Z,1010.18
2018-07-20T10:10:33.712Z,1010.20
2018-07-20T10:11:33.733Z,1010.23
2018-07-20T10:12:33.784Z,1010.22
2018-07-20T10:13:33.768Z,1010.22
2018-07-20T10:14:33.780Z,1010.26
2018-07-20T10:15:33.796Z,1010.25
2018-07-20T10:16:33.813Z,1010.21
2018-07-20T10:17:33.829Z,1010.20
2018-07-20T10:18:33.851Z,1010.21
2018-07-20T10:19:33.875Z,1010.24
2018-07-20T10:20:33.885Z,1010.23
2018-07-20T10:21:33.901Z,1010.22
2018-07-20T10:22:33.914Z,1010.23
2018-07-20T10:23:33.930Z,1010.21
2018-07-20T10:24:33.947Z,1010.19
2018-07-20T10:25:34.023Z,1010.22
2018-07-20T10:26:33.985Z,1010.19
2018-07-20T10:27:34.002Z,1010.21
2018-07-20T10:28:34.015Z,1010.22
2018-07-20T10:29:34.031Z,1010.20
2018-07-20T10:30:34.075Z,1010.23
2018-07-20T10:31:34.071Z,1010.24
2018-07-20T10:32:34.088Z,1010.23
2018-07-20T10:33:34.108Z,1010.25
2018-07-20T10:34:34.117Z,1010.21
2018-07-20T10:35:34.136Z,1010.20
2018-07-20T10:36:34.183Z,1010.17
2018-07-20T10:37:34.171Z,1010.15
2018-07-20T10:38:34.195Z,1010.14
2018-07-20T10:39:34.212Z,1010.08
2018-07-20T10:40:34.230Z,1010.11
2018-07-20T10:41:34.247Z,1010.14
2018-07-20T10:42:34.264Z,1010.18
2018-07-20T10:43:34.279Z,1010.14
2018-07-20T10:44:34.302Z,1010.11
2018-07-20T10:45:34.320Z,1010.08
2018-07-20T10:46:34.334Z,1010.09
2018-07-20T10:47:34.353Z,1010.12
2018-07-20T10:48:34.371Z,1010.14
2018-07-20T10:49:34.390Z,1010.08
2018-07-20T10:50:34.412Z,1010.08
2018-07-20T10:51:34.431Z,1010.14
2018-07-20T10:52:34.448Z,1010.12
2018-07-20T10:53:34.468Z,1010.18
2018-07-20T10:54:34.481Z,1010.17
2018-07-20T10:55:34.498Z,1010.18
2018-07-20T10:56:34.515Z,1010.10
2018-07-20T10:57:34.532Z,1010.08
2018-07-20T10:58:34.555Z,1010.08
2018-07-20T10:59:34.571Z,1010.04
2018-07-20T11:00:34.589Z,1010.02
2018-07-20T11:01:34.674Z,1010.06
2018-07-20T11:02:34.625Z,1009.98
2018-07-20T11:03:34.646Z,1009.97
2018-07-20T11:04:34.660Z,1009.99
2018-07-20T11:05:34.675Z,1010.00
2018-07-20T11:06:34.690Z,1009.95
2018-07-20T11:07:34.710Z,1009.96
2018-07-20T11:08:34.723Z,1009.94
2018-07-20T11:09:34.739Z,1009.92
2018-07-20T11:10:34.762Z,1009.90
2018-07-20T11:11:34.779Z,1009.92
2018-07-20T11:12:34.795Z,1009.91
2018-07-20T11:13:34.811Z,1009.94
2018-07-20T11:14:34.824Z,1009.94
2018-07-20T11:15:34.841Z,1009.94
2018-07-20T11:16:34.864Z,1009.93
2018-07-20T11:17:34.910Z,1009.88
2018-07-20T11:18:34.891Z,1009.89
2018-07-20T11:19:34.909Z,1009.90
2018-07-20T11:20:34.927Z,1009.90
2018-07-20T11:21:34.943Z,1009.83
2018-07-20T11:22:34.966Z,1009.82
2018-07-20T11:23:34.982Z,1009.84
2018-07-20T11:24:34.998Z,1009.78
2018-07-20T11:25:35.015Z,1009.77
2018-07-20T11:26:35.027Z,1009.73
2018-07-20T11:27:35.043Z,1009.63
2018-07-20T11:28:35.059Z,1009.66
2018-07-20T11:29:35.076Z,1009.59
2018-07-20T11:30:35.095Z,1009.55
2018-07-20T11:31:35.112Z,1009.55
2018-07-20T11:32:35.126Z,1009.45
2018-07-20T11:33:35.139Z,1009.47
2018-07-20T11:34:35.191Z,1009.46
2018-07-20T11:35:35.173Z,1009.45
2018-07-20T11:36:35.192Z,1009.45
2018-07-20T11:37:35.204Z,1009.39
2018-07-20T11:38:35.217Z,1009.44
2018-07-20T11:39:35.228Z,1009.38
2018-07-20T11:40:35.245Z,1009.41
2018-07-20T11:41:35.259Z,1009.39
2018-07-20T11:42:35.270Z,1009.37
2018-07-20T11:43:35.284Z,1009.36
2018-07-20T11:44:35.299Z,1009.34
2018-07-20T11:45:35.308Z,1009.39
2018-07-20T11:46:35.328Z,1009.35
2018-07-20T11:47:35.341Z,1009.31
2018-07-20T11:48:35.350Z,1009.31
2018-07-20T11:49:35.361Z,1009.28
2018-07-20T11:50:35.377Z,1009.24
2018-07-20T11:51:35.390Z,1009.25
2018-07-20T11:52:35.402Z,1009.28
2018-07-20T11:53:35.412Z,1009.24
2018-07-20T11:54:35.419Z,1009.23
2018-07-20T11:55:35.433Z,1009.25
2018-07-20T11:56:35.442Z,1009.23
2018-07-20T11:57:35.454Z,1009.21
2018-07-20T11:58:35.469Z,1009.20
2018-07-20T11:59:35.481Z,1009.17
2018-07-20T12:00:35.492Z,1009.15
2018-07-20T12:01:35.504Z,1009.15
2018-07-20T12:02:35.507Z,1009.14
2018-07-20T12:03:35.518Z,1009.12
2018-07-20T12:04:35.535Z,1009.10
2018-07-20T12:05:35.543Z,1009.12